Time;durP1;ratioP1;P1;durP2;ratioP2;P2;SDS_P1;SDS_P2;PMS_P1;PMS_P2;Temp;Humidity;BMP_temperature;BMP_pressure;BME280_temperature;BME280_humidity;BME280_pressure;Samples;Min_cycle;Max_cycle;Signal;HPM_P1;HPM_P2
2023/06/07 00:00:16;;;;;;;3.75;2.85;;;;;;;20.58;52.17;100038.94;4927253;28;20130;-88
2023/06/07 00:02:43;;;;;;;2.85;2.35;;;;;;;20.51;52.14;100035.31;4941816;28;20054;-87
2023/06/07 00:05:12;;;;;;;4.15;2.50;;;;;;;20.44;52.34;100026.34;4928138;28;20051;-88
2023/06/07 00:07:41;;;;;;;3.47;2.63;;;;;;;20.47;52.24;100036.72;4930477;28;20109;-87
2023/06/07 00:10:08;;;;;;;2.72;2.53;;;;;;;20.44;52.53;100042.53;4942390;28;20054;-87
2023/06/07 00:12:36;;;;;;;2.65;2.42;;;;;;;20.41;52.60;100031.31;4910739;28;20058;-87
2023/06/07 00:15:03;;;;;;;2.80;2.47;;;;;;;20.40;52.89;100038.53;4939675;28;20058;-87
2023/06/07 00:17:31;;;;;;;3.08;2.65;;;;;;;20.35;52.81;100027.50;4903731;28;20065;-88
2023/06/07 00:19:58;;;;;;;3.08;2.78;;;;;;;20.32;52.79;100023.31;4916068;28;20110;-87
2023/06/07 00:22:25;;;;;;;3.00;2.70;;;;;;;20.31;52.99;100027.06;4920625;28;20054;-87
2023/06/07 00:24:52;;;;;;;3.88;2.50;;;;;;;20.29;52.87;100021.03;4933785;28;20050;-87
2023/06/07 00:27:19;;;;;;;4.38;2.83;;;;;;;20.20;53.21;100014.13;4911651;28;20536;-87
2023/06/07 00:29:46;;;;;;;3.15;2.70;;;;;;;20.24;53.01;100015.38;4927027;28;20055;-86
2023/06/07 00:32:13;;;;;;;3.42;2.85;;;;;;;20.23;53.30;100018.28;4901469;28;20131;-87
2023/06/07 00:34:40;;;;;;;3.50;2.75;;;;;;;20.20;53.01;100011.41;4933013;28;20074;-87
2023/06/07 00:37:07;;;;;;;3.88;2.97;;;;;;;20.20;52.89;100016.81;4922979;28;20070;-87
2023/06/07 00:39:35;;;;;;;5.50;3.25;;;;;;;20.18;53.08;100013.47;4894172;28;20099;-88
2023/06/07 00:42:03;;;;;;;4.75;3.25;;;;;;;20.19;52.86;100011.59;4902694;28;20054;-88
2023/06/07 00:44:30;;;;;;;3.83;3.42;;;;;;;20.17;52.38;100007.25;4912134;28;20056;-89
2023/06/07 00:46:57;;;;;;;4.53;2.90;;;;;;;20.17;52.88;100015.34;4922446;28;20413;-88
2023/06/07 00:49:26;;;;;;;3.88;3.03;;;;;;;20.12;53.18;100017.78;4918602;28;20042;-87
2023/06/07 00:51:53;;;;;;;3.78;2.90;;;;;;;20.12;53.12;100011.53;4925694;28;20450;-87
2023/06/07 00:54:20;;;;;;;3.20;2.90;;;;;;;20.06;53.11;100012.31;4936541;28;20047;-86
2023/06/07 00:56:51;;;;;;;3.65;3.10;;;;;;;20.10;53.13;100006.34;4936422;28;20051;-87
2023/06/07 00:59:19;;;;;;;6.13;3.20;;;;;;;20.10;53.00;100010.91;4945492;28;20144;-87
2023/06/07 01:01:53;;;;;;;4.38;2.85;;;;;;;19.90;53.64;100010.72;4934880;28;20042;-88
2023/06/07 01:04:20;;;;;;;4.30;2.45;;;;;;;19.94;53.19;100022.75;4922164;28;20046;-88
2023/06/07 01:06:47;;;;;;;4.28;2.88;;;;;;;19.92;52.89;100022.97;4938099;28;20058;-88
2023/06/07 01:09:15;;;;;;;5.28;2.97;;;;;;;19.90;53.25;100013.41;4926791;28;20118;-88
2023/06/07 01:11:45;;;;;;;6.25;3.47;;;;;;;19.89;53.29;100009.03;4920115;28;20058;-87
2023/06/07 01:14:12;;;;;;;5.55;3.42;;;;;;;19.88;53.14;100012.75;4903907;28;20049;-88
2023/06/07 01:16:40;;;;;;;5.38;2.88;;;;;;;19.77;53.36;100014.13;4916629;28;20047;-88
2023/06/07 01:19:16;;;;;;;5.05;3.22;;;;;;;19.70;53.76;100007.81;4919439;28;20126;-87
2023/06/07 01:21:43;;;;;;;5.18;3.10;;;;;;;19.70;53.64;99999.72;4917067;28;20208;-88
2023/06/07 01:24:10;;;;;;;6.68;3.35;;;;;;;19.72;53.78;100003.91;4903248;28;20058;-88
2023/06/07 01:26:37;;;;;;;5.97;3.58;;;;;;;19.74;53.56;100009.09;4922339;28;20048;-87
2023/06/07 01:29:06;;;;;;;4.28;2.85;;;;;;;19.71;53.54;100004.91;4957645;28;20303;-88
2023/06/07 01:31:37;;;;;;;3.60;2.88;;;;;;;19.66;54.16;100007.31;4924297;28;20157;-87
2023/06/07 01:34:04;;;;;;;4.82;3.10;;;;;;;19.62;54.00;100006.03;4930627;28;20447;-87
2023/06/07 01:36:31;;;;;;;4.15;2.90;;;;;;;19.57;54.00;100002.25;4959829;28;20062;-87
2023/06/07 01:38:59;;;;;;;4.20;2.78;;;;;;;19.60;54.00;100007.25;4924085;28;20114;-87
2023/06/07 01:41:30;;;;;;;4.95;2.45;;;;;;;19.56;54.60;100011.34;4920336;28;20122;-87
2023/06/07 01:43:58;;;;;;;3.72;2.65;;;;;;;19.57;53.92;100008.47;4904939;28;20051;-88
2023/06/07 01:46:26;;;;;;;4.28;2.80;;;;;;;19.56;54.25;100006.78;4901162;28;20745;-89
2023/06/07 01:48:53;;;;;;;3.55;2.53;;;;;;;19.49;54.48;100003.22;4910972;28;20574;-87
2023/06/07 01:51:20;;;;;;;3.15;2.83;;;;;;;19.51;54.32;100003.81;4894122;28;20495;-87
2023/06/07 01:53:49;;;;;;;2.80;2.47;;;;;;;19.46;54.42;99990.97;4942077;28;20054;-87
2023/06/07 01:56:40;;;;;;;4.18;3.15;;;;;;;19.15;55.60;99999.25;4891980;28;20096;-86
2023/06/07 01:59:27;;;;;;;5.65;2.70;;;;;;;19.15;55.31;100003.81;4910860;28;20126;-86
2023/06/07 02:02:04;;;;;;;3.55;2.60;;;;;;;19.24;55.26;99997.31;4938806;28;20061;-87
2023/06/07 02:04:34;;;;;;;3.60;2.63;;;;;;;19.28;54.83;99991.38;4922467;28;20057;-86
2023/06/07 02:07:05;;;;;;;4.70;2.83;;;;;;;19.24;55.20;99997.31;4887084;28;20058;-87
2023/06/07 02:09:35;;;;;;;3.35;2.65;;;;;;;19.25;55.05;99994.41;4918880;28;20082;-88
2023/06/07 02:12:08;;;;;;;3.65;2.72;;;;;;;19.20;55.09;99996.84;4917771;28;20106;-87
2023/06/07 02:14:36;;;;;;;2.95;2.72;;;;;;;19.23;55.18;99992.94;4920979;28;20138;-87
2023/06/07 02:17:07;;;;;;;3.20;2.53;;;;;;;19.19;55.21;100003.25;4914118;28;20410;-88
2023/06/07 02:19:36;;;;;;;3.85;2.60;;;;;;;19.23;54.80;99996.47;4929015;28;20094;-87
2023/06/07 02:22:05;;;;;;;3.70;2.50;;;;;;;19.21;55.17;99998.53;4936492;28;20130;-88
2023/06/07 02:24:34;;;;;;;4.85;2.60;;;;;;;19.12;55.28;100001.50;4947529;28;20057;-87
2023/06/07 02:27:03;;;;;;;4.88;2.40;;;;;;;19.11;55.32;99997.13;4926452;28;20058;-87
2023/06/07 02:29:30;;;;;;;2.83;2.63;;;;;;;19.04;55.57;99997.06;4931605;28;20058;-87
2023/06/07 02:32:00;;;;;;;4.32;3.25;;;;;;;19.07;55.44;100002.06;4916577;28;20142;-87
2023/06/07 02:34:29;;;;;;;5.53;2.58;;;;;;;19.02;55.35;99989.16;4922187;28;20124;-87
2023/06/07 02:36:57;;;;;;;5.32;2.63;;;;;;;19.02;55.49;99999.09;4949284;28;20137;-87
2023/06/07 02:39:24;;;;;;;3.42;2.80;;;;;;;19.05;55.54;99999.53;4937077;28;20050;-87
2023/06/07 02:41:51;;;;;;;3.38;2.72;;;;;;;19.03;55.72;100000.75;4942411;28;20050;-87
2023/06/07 02:44:18;;;;;;;3.90;2.72;;;;;;;18.97;55.50;99991.56;4922135;28;20054;-87
2023/06/07 02:46:45;;;;;;;3.15;2.88;;;;;;;18.94;55.73;99999.19;4923382;28;20058;-87
2023/06/07 02:49:12;;;;;;;5.30;2.90;;;;;;;18.92;55.81;100004.75;4938184;28;20072;-87
2023/06/07 02:51:40;;;;;;;4.18;3.38;;;;;;;18.96;55.60;99992.59;4898956;28;20117;-87
2023/06/07 02:54:08;;;;;;;4.03;2.78;;;;;;;18.94;55.64;99989.25;4921676;28;20051;-87
2023/06/07 02:56:37;;;;;;;3.00;2.70;;;;;;;18.93;55.71;99990.28;4916937;28;20046;-87
2023/06/07 02:59:04;;;;;;;3.45;2.80;;;;;;;18.86;55.59;99990.19;4905808;28;20155;-87
2023/06/07 03:01:37;;;;;;;3.00;2.70;;;;;;;18.90;55.68;100003.25;4914443;28;20074;-87
2023/06/07 03:04:05;;;;;;;3.08;2.78;;;;;;;18.86;55.78;99992.06;4937621;28;20062;-88
2023/06/07 03:06:32;;;;;;;4.50;2.67;;;;;;;18.80;55.69;99993.63;4904963;28;20048;-88
2023/06/07 03:09:09;;;;;;;4.35;3.08;;;;;;;18.79;55.83;99988.44;4892599;28;20501;-87
2023/06/07 03:11:38;;;;;;;5.57;3.80;;;;;;;18.80;55.77;99995.47;4921482;28;20118;-87
2023/06/07 03:14:05;;;;;;;3.90;3.13;;;;;;;18.77;55.82;99993.16;4940822;28;20047;-86
2023/06/07 03:16:44;;;;;;;3.83;3.08;;;;;;;18.71;55.79;100000.06;4930859;28;20058;-88
2023/06/07 03:19:14;;;;;;;4.15;3.00;;;;;;;18.71;55.67;99992.00;4907457;28;20043;-87
2023/06/07 03:21:44;;;;;;;3.72;3.13;;;;;;;18.74;55.57;99993.50;4923860;28;20135;-87
2023/06/07 03:24:16;;;;;;;4.47;2.83;;;;;;;18.68;55.77;99997.75;4936915;28;20043;-88
2023/06/07 03:26:43;;;;;;;4.47;3.20;;;;;;;18.65;55.89;100001.66;4895452;28;20414;-86
2023/06/07 03:29:11;;;;;;;4.53;3.10;;;;;;;18.65;55.74;100007.03;4902597;28;20051;-86
2023/06/07 03:31:40;;;;;;;4.70;2.72;;;;;;;18.70;55.74;100011.00;4888259;28;20039;-87
2023/06/07 03:34:10;;;;;;;4.80;3.35;;;;;;;18.64;55.69;100010.72;4907163;28;20059;-87
2023/06/07 03:36:37;;;;;;;4.10;2.67;;;;;;;18.58;56.09;100010.66;4946201;28;20051;-87
2023/06/07 03:39:05;;;;;;;3.20;2.90;;;;;;;18.59;55.97;100017.69;4920369;28;20358;-87
2023/06/07 03:41:32;;;;;;;6.93;3.10;;;;;;;18.52;56.13;100003.28;4942049;28;20105;-86
2023/06/07 03:44:03;;;;;;;4.63;2.90;;;;;;;18.58;56.00;100013.34;4912302;28;20051;-87
2023/06/07 03:46:30;;;;;;;4.30;3.38;;;;;;;18.66;55.96;100018.63;4912819;28;20051;-88
2023/06/07 03:48:57;;;;;;;3.13;2.85;;;;;;;18.74;56.30;100021.22;4924562;28;20143;-87
2023/06/07 03:51:25;;;;;;;2.70;2.50;;;;;;;18.82;56.48;100018.47;4925665;28;20386;-87
2023/06/07 03:53:55;;;;;;;4.20;3.22;;;;;;;19.06;56.48;100019.25;4953706;28;20055;-86
2023/06/07 03:56:22;;;;;;;4.15;3.47;;;;;;;19.46;56.20;100019.72;4945815;28;20150;-87
2023/06/07 03:58:49;;;;;;;3.28;2.97;;;;;;;20.12;55.11;100027.72;4950287;28;20050;-87
2023/06/07 04:01:19;;;;;;;4.18;3.35;;;;;;;20.78;53.01;100025.56;4936606;28;20058;-88
2023/06/07 04:03:46;;;;;;;5.28;3.20;;;;;;;21.33;50.96;100022.13;4924886;28;20057;-88
2023/06/07 04:06:14;;;;;;;4.13;3.10;;;;;;;21.71;49.13;100017.09;4924135;28;20050;-88
2023/06/07 04:08:42;;;;;;;3.60;3.30;;;;;;;21.62;48.92;100021.00;4899780;28;20114;-87
2023/06/07 04:11:09;;;;;;;3.50;3.13;;;;;;;21.24;49.28;100024.16;4907753;28;20047;-87
2023/06/07 04:13:36;;;;;;;3.78;3.13;;;;;;;21.07;49.69;100025.56;4924099;28;20044;-87
2023/06/07 04:16:04;;;;;;;7.75;3.30;;;;;;;20.88;50.13;100016.28;4927641;28;20043;-87
2023/06/07 04:18:31;;;;;;;5.38;3.00;;;;;;;20.62;50.76;100023.19;4924340;28;20126;-87
2023/06/07 04:20:58;;;;;;;4.65;3.30;;;;;;;20.51;51.21;100018.31;4910898;28;20127;-88
2023/06/07 04:23:25;;;;;;;4.05;3.28;;;;;;;20.42;51.63;100014.91;4911032;28;20051;-89
2023/06/07 04:25:55;;;;;;;4.22;3.20;;;;;;;20.44;51.47;100014.72;4925576;28;20124;-88
2023/06/07 04:28:23;;;;;;;4.55;3.13;;;;;;;20.37;51.81;100006.56;4918263;28;20055;-88
2023/06/07 04:30:53;;;;;;;4.88;3.30;;;;;;;20.38;51.71;100019.88;4908961;28;20059;-88
2023/06/07 04:33:21;;;;;;;3.85;3.22;;;;;;;20.28;52.01;100013.16;4956357;28;20062;-88
2023/06/07 04:35:57;;;;;;;6.40;3.20;;;;;;;20.32;51.70;100019.78;4931385;28;20561;-88
2023/06/07 04:38:25;;;;;;;4.38;3.72;;;;;;;20.13;52.16;100027.53;4912262;28;20054;-88
2023/06/07 04:41:00;;;;;;;4.18;3.72;;;;;;;20.07;52.25;100027.44;4950052;28;20090;-88
2023/06/07 04:43:37;;;;;;;4.47;3.22;;;;;;;19.89;53.01;100025.19;4921388;28;20058;-88
2023/06/07 04:46:09;;;;;;;4.28;3.67;;;;;;;19.79;53.44;100035.47;4932277;28;20577;-88
2023/06/07 04:48:40;;;;;;;6.43;3.80;;;;;;;19.67;53.24;100033.28;4909587;28;20055;-87
2023/06/07 04:51:09;;;;;;;5.68;3.88;;;;;;;19.60;53.35;100035.03;4923616;28;20114;-88
2023/06/07 04:53:42;;;;;;;3.85;3.42;;;;;;;19.44;54.21;100033.41;4933663;28;20098;-89
2023/06/07 04:56:13;;;;;;;3.43;3.13;;;;;;;19.37;54.14;100031.66;4937326;28;20039;-88
2023/06/07 04:58:40;;;;;;;3.45;3.13;;;;;;;19.41;54.32;100036.47;4934843;28;20058;-88
2023/06/07 05:01:10;;;;;;;8.00;3.70;;;;;;;19.34;54.47;100034.72;4923780;28;20043;-87
2023/06/07 05:03:41;;;;;;;4.43;3.80;;;;;;;19.35;55.02;100036.38;4918121;28;20047;-89
2023/06/07 05:06:11;;;;;;;;;;;;;;;19.02;56.50;100042.97;4928163;28;20118;-89
2023/06/07 05:08:39;;;;;;;4.22;3.70;;;;;;;19.24;55.03;100032.31;4931108;28;19926;-88
2023/06/07 05:11:06;;;;;;;3.83;3.42;;;;;;;19.30;55.07;100032.38;4924814;28;20048;-88
2023/06/07 05:13:33;;;;;;;5.53;3.28;;;;;;;19.38;55.22;100030.59;4922007;28;20048;-88
2023/06/07 05:16:01;;;;;;;4.22;3.65;;;;;;;19.41;55.17;100022.16;4900989;28;20119;-87
2023/06/07 05:18:30;;;;;;;3.90;3.50;;;;;;;19.45;55.08;100026.97;4903540;28;20094;-88
2023/06/07 05:20:58;;;;;;;4.05;3.53;;;;;;;19.47;55.09;100024.94;4942518;28;20102;-89
2023/06/07 05:23:25;;;;;;;5.03;3.83;;;;;;;19.46;55.45;100033.19;4917373;28;20146;-89
2023/06/07 05:25:54;;;;;;;4.55;3.70;;;;;;;19.47;55.83;100038.41;4929220;28;20057;-89
2023/06/07 05:28:22;;;;;;;4.05;3.67;;;;;;;19.35;55.73;100023.75;4945203;28;20130;-88
2023/06/07 05:30:53;;;;;;;4.50;4.10;;;;;;;19.38;55.79;100026.06;4926932;28;20044;-88
2023/06/07 05:33:21;;;;;;;4.63;4.10;;;;;;;19.40;55.63;100031.25;4938624;28;20069;-88
2023/06/07 05:35:48;;;;;;;6.25;3.53;;;;;;;19.39;55.78;100027.75;4922208;28;20138;-88
2023/06/07 05:38:16;;;;;;;6.07;3.95;;;;;;;19.43;55.85;100036.25;4910614;28;20081;-88
2023/06/07 05:40:43;;;;;;;5.45;3.72;;;;;;;19.39;55.96;100021.53;4896970;28;20154;-88
2023/06/07 05:43:10;;;;;;;7.70;4.10;;;;;;;19.46;55.97;100035.88;4923165;28;20047;-88
2023/06/07 05:45:40;;;;;;;4.22;3.80;;;;;;;19.47;56.11;100034.88;4925540;28;20051;-89
2023/06/07 05:48:07;;;;;;;7.03;3.60;;;;;;;19.43;56.15;100034.41;4906061;28;20051;-88
2023/06/07 05:50:35;;;;;;;7.18;4.30;;;;;;;19.47;56.11;100033.00;4921851;28;20474;-88
2023/06/07 05:53:01;;;;;;;4.82;4.43;;;;;;;19.43;56.19;100030.88;4922277;28;20062;-88
2023/06/07 05:55:28;;;;;;;7.65;4.05;;;;;;;19.46;56.29;100020.59;4942282;28;20138;-89
2023/06/07 05:58:00;;;;;;;4.40;4.00;;;;;;;19.58;56.29;100022.78;4904671;28;20055;-88
2023/06/07 06:00:28;;;;;;;5.13;3.92;;;;;;;19.55;56.16;100015.91;4942559;28;20051;-88
2023/06/07 06:02:56;;;;;;;4.78;3.95;;;;;;;19.63;56.25;100018.47;4893358;28;20070;-88
2023/06/07 06:05:27;;;;;;;6.90;4.28;;;;;;;19.63;56.14;100017.66;4940738;28;20051;-89
2023/06/07 06:07:55;;;;;;;5.22;4.55;;;;;;;19.57;56.15;100023.81;4913628;28;20054;-88
2023/06/07 06:10:23;;;;;;;4.85;4.38;;;;;;;19.59;56.44;100025.28;4923680;28;20050;-88
2023/06/07 06:12:52;;;;;;;7.30;4.55;;;;;;;19.54;56.43;100022.31;4944652;28;20043;-88
2023/06/07 06:15:19;;;;;;;6.03;4.60;;;;;;;19.59;56.63;100022.59;4918581;28;20478;-89
2023/06/07 06:17:54;;;;;;;6.95;5.10;;;;;;;19.69;56.55;100030.38;4914900;28;20071;-88
2023/06/07 06:20:21;;;;;;;;;;;;;;;19.40;57.47;100020.50;4907973;28;20054;-89
2023/06/07 06:22:48;;;;;;;7.15;5.22;;;;;;;19.60;56.60;100023.41;4909849;28;19985;-88
2023/06/07 06:25:15;;;;;;;7.20;4.50;;;;;;;19.64;56.53;100009.38;4909188;28;20039;-89
2023/06/07 06:27:42;;;;;;;5.25;4.72;;;;;;;19.70;56.22;100019.41;4941625;28;20098;-88
2023/06/07 06:30:09;;;;;;;5.20;4.70;;;;;;;19.79;56.52;100022.00;4941218;28;20043;-89
2023/06/07 06:32:35;;;;;;;5.53;5.03;;;;;;;19.80;56.57;100015.59;4941223;28;20039;-88
2023/06/07 06:35:03;;;;;;;7.93;4.95;;;;;;;19.85;56.44;100018.53;4939829;28;20078;-88
2023/06/07 06:37:30;;;;;;;5.32;4.93;;;;;;;19.87;56.74;100017.34;4922033;28;20051;-88
2023/06/07 06:39:57;;;;;;;5.90;4.55;;;;;;;19.89;56.63;100026.03;4919555;29;20051;-87
2023/06/07 06:42:23;;;;;;;8.15;4.90;;;;;;;19.98;56.96;100020.53;4903144;28;20117;-88
2023/06/07 06:45:04;;;;;;;6.45;5.00;;;;;;;20.00;56.67;100021.16;4907258;28;20129;-89
2023/06/07 06:47:31;;;;;;;5.28;4.50;;;;;;;20.04;56.65;100014.38;4924190;28;20102;-88
2023/06/07 06:50:00;;;;;;;6.45;4.72;;;;;;;20.05;56.87;100014.19;4910989;28;20466;-88
2023/06/07 06:52:27;;;;;;;7.75;4.45;;;;;;;20.14;56.85;100022.97;4953140;28;20043;-89
2023/06/07 06:54:54;;;;;;;6.97;3.92;;;;;;;20.12;56.96;100015.09;4923700;28;20158;-88
2023/06/07 06:57:21;;;;;;;7.40;5.32;;;;;;;20.24;57.04;100020.78;4923091;28;20143;-89
2023/06/07 06:59:48;;;;;;;5.28;4.18;;;;;;;20.23;57.24;100013.72;4923877;28;20050;-89
2023/06/07 07:02:16;;;;;;;7.60;5.20;;;;;;;20.25;57.60;100019.75;4905813;28;20421;-88
2023/06/07 07:04:43;;;;;;;6.40;5.65;;;;;;;20.26;57.46;100020.59;4910468;28;20049;-89
2023/06/07 07:07:11;;;;;;;6.78;5.70;;;;;;;20.23;57.38;100020.97;4925588;28;20457;-88
2023/06/07 07:09:38;;;;;;;6.13;5.50;;;;;;;20.26;57.82;100021.41;4923599;28;20803;-88
2023/06/07 07:12:06;;;;;;;6.45;5.55;;;;;;;20.29;57.43;100017.50;4933010;28;20047;-88
2023/06/07 07:14:33;;;;;;;7.25;5.32;;;;;;;20.33;57.04;100019.63;4910408;28;20081;-88
2023/06/07 07:17:00;;;;;;;8.38;6.10;;;;;;;20.37;57.05;100020.88;4925709;28;20529;-89
2023/06/07 07:19:27;;;;;;;6.75;5.55;;;;;;;20.42;57.01;100020.28;4910537;28;20193;-87
2023/06/07 07:21:54;;;;;;;8.48;6.15;;;;;;;20.46;56.88;100024.28;4884904;28;20058;-89
2023/06/07 07:24:21;;;;;;;6.25;5.65;;;;;;;20.57;56.85;100029.16;4941065;28;20509;-87
2023/06/07 07:26:48;;;;;;;6.22;5.60;;;;;;;20.62;56.77;100033.97;4926099;28;20054;-89
2023/06/07 07:29:15;;;;;;;6.10;5.50;;;;;;;20.67;56.70;100026.13;4927034;28;20039;-89
2023/06/07 07:31:42;;;;;;;6.32;5.63;;;;;;;20.68;56.20;100029.66;4928745;28;20057;-87
2023/06/07 07:34:10;;;;;;;6.07;5.47;;;;;;;20.66;56.43;100024.47;4926344;28;20446;-88
2023/06/07 07:36:41;;;;;;;8.38;5.57;;;;;;;20.68;56.57;100033.19;4920974;28;20055;-88
2023/06/07 07:39:08;;;;;;;7.35;6.22;;;;;;;20.70;56.66;100022.19;4942336;28;20051;-86
2023/06/07 07:41:34;;;;;;;6.05;5.55;;;;;;;20.68;56.11;100022.38;4920103;28;20581;-89
2023/06/07 07:44:02;;;;;;;7.03;6.30;;;;;;;20.67;56.30;100030.69;4903954;28;20055;-87
2023/06/07 07:46:29;;;;;;;5.35;4.85;;;;;;;20.63;56.17;100024.84;4917516;28;20051;-90
2023/06/07 07:48:56;;;;;;;5.68;5.07;;;;;;;20.64;55.86;100031.91;4941030;28;20052;-88
2023/06/07 07:51:23;;;;;;;5.28;4.88;;;;;;;20.61;55.92;100016.13;4901842;28;20094;-86
2023/06/07 07:53:53;;;;;;;5.97;5.47;;;;;;;20.68;56.01;100019.69;4925753;28;20043;-86
2023/06/07 07:56:21;;;;;;;6.00;5.43;;;;;;;20.73;55.89;100024.50;4910232;28;20475;-87
2023/06/07 07:58:50;;;;;;;5.38;4.88;;;;;;;20.77;55.87;100028.47;4915606;28;20244;-87
2023/06/07 08:01:18;;;;;;;8.13;5.80;;;;;;;20.77;55.87;100026.59;4910071;28;20055;-86
2023/06/07 08:03:48;;;;;;;6.50;5.78;;;;;;;20.71;56.28;100022.00;4914873;28;20043;-88
2023/06/07 08:06:16;;;;;;;6.18;5.45;;;;;;;20.78;56.23;100022.03;4949265;28;20054;-87
2023/06/07 08:08:46;;;;;;;6.03;5.40;;;;;;;20.84;56.48;100018.56;4945897;28;20575;-85
2023/06/07 08:11:13;;;;;;;5.88;5.30;;;;;;;20.89;56.45;100023.34;4954951;28;20376;-87
2023/06/07 08:13:40;;;;;;;5.47;4.97;;;;;;;20.95;56.03;100031.50;4947754;28;20042;-88
2023/06/07 08:16:07;;;;;;;5.00;4.53;;;;;;;20.92;55.25;100012.19;4939635;28;20462;-87
2023/06/07 08:18:34;;;;;;;5.20;4.60;;;;;;;21.02;55.19;100023.44;4928974;28;20162;-87
2023/06/07 08:21:02;;;;;;;5.07;4.40;;;;;;;21.06;55.89;100022.00;4911231;28;20055;-88
2023/06/07 08:23:30;;;;;;;5.55;4.93;;;;;;;21.09;55.23;100020.75;4942943;28;20586;-87
2023/06/07 08:26:00;;;;;;;5.55;5.05;;;;;;;21.06;55.38;100008.50;4925021;28;20051;-87
2023/06/07 08:28:27;;;;;;;4.90;4.03;;;;;;;21.10;55.29;100012.47;4913525;28;20053;-88
2023/06/07 08:30:55;;;;;;;4.57;4.18;;;;;;;21.17;55.35;100012.53;4928854;28;20073;-88
2023/06/07 08:33:22;;;;;;;4.47;4.10;;;;;;;21.21;55.06;100019.16;4942883;28;20574;-88
2023/06/07 08:35:49;;;;;;;4.57;4.18;;;;;;;21.15;54.80;100017.28;4944212;28;20051;-87
2023/06/07 08:38:16;;;;;;;4.15;3.67;;;;;;;21.15;54.46;100012.72;4926802;28;20086;-86
2023/06/07 08:40:43;;;;;;;4.47;4.07;;;;;;;21.16;54.81;100011.66;4919778;28;20105;-87
2023/06/07 08:43:10;;;;;;;3.65;3.10;;;;;;;21.18;54.38;100024.97;4928529;28;20056;-87
2023/06/07 08:45:37;;;;;;;2.63;2.42;;;;;;;21.14;53.76;100021.00;4941666;28;20052;-87
2023/06/07 08:48:11;;;;;;;4.90;2.95;;;;;;;21.17;53.85;100017.91;4909038;28;20061;-87
2023/06/07 08:50:39;;;;;;;2.47;2.28;;;;;;;21.16;53.53;100013.53;4929517;28;20514;-86
2023/06/07 08:53:12;;;;;;;3.00;2.50;;;;;;;21.12;53.60;100010.41;4946991;28;20065;-87
2023/06/07 08:55:39;;;;;;;3.30;3.00;;;;;;;21.17;53.77;100020.63;4926103;28;20107;-88
2023/06/07 08:58:07;;;;;;;3.45;3.15;;;;;;;21.22;53.83;100018.97;4939318;28;20043;-87
2023/06/07 09:00:35;;;;;;;3.05;2.75;;;;;;;21.28;54.31;100022.75;4925043;28;20106;-86
2023/06/07 09:03:02;;;;;;;2.80;2.60;;;;;;;21.31;53.95;100021.50;4944583;28;20059;-87
2023/06/07 09:05:29;;;;;;;2.72;2.53;;;;;;;21.35;54.53;100029.00;4886774;28;20094;-87
2023/06/07 09:07:56;;;;;;;3.50;3.20;;;;;;;21.37;54.55;100023.38;4925825;28;20681;-88
2023/06/07 09:10:24;;;;;;;3.38;3.17;;;;;;;21.33;53.95;100032.94;4913463;28;20054;-86
2023/06/07 09:12:51;;;;;;;4.53;3.47;;;;;;;21.35;54.48;100033.59;4943996;28;20106;-88
2023/06/07 09:15:19;;;;;;;3.50;3.20;;;;;;;21.36;54.57;100036.06;4925948;28;20544;-88
2023/06/07 09:18:04;;;;;;;3.67;3.38;;;;;;;21.33;55.39;100030.25;4929709;28;20047;-88
2023/06/07 09:20:31;;;;;;;4.07;3.67;;;;;;;21.45;54.45;100031.38;4941508;28;20077;-87
2023/06/07 09:23:09;;;;;;;3.60;3.30;;;;;;;21.44;54.88;100029.69;4921645;28;20056;-86
2023/06/07 09:25:37;;;;;;;3.58;3.28;;;;;;;21.45;54.37;100032.19;4926097;28;20051;-87
2023/06/07 09:28:11;;;;;;;4.05;3.47;;;;;;;21.39;54.30;100022.19;4927876;28;20058;-87
2023/06/07 09:30:59;;;;;;;4.55;3.72;;;;;;;21.30;54.45;100022.53;4944708;28;20063;-87
2023/06/07 09:33:29;;;;;;;3.97;3.40;;;;;;;21.34;55.01;100032.72;4936493;28;20110;-88
2023/06/07 09:36:06;;;;;;;3.78;3.47;;;;;;;21.31;54.61;100021.50;4927716;28;20052;-86
2023/06/07 09:38:34;;;;;;;4.13;3.83;;;;;;;21.37;55.08;100035.06;4922221;28;20354;-86
2023/06/07 09:41:01;;;;;;;5.88;3.97;;;;;;;21.38;54.70;100034.03;4887429;28;20102;-87
2023/06/07 09:43:50;;;;;;;4.10;3.45;;;;;;;21.35;54.54;100038.97;4927804;28;20056;-88
2023/06/07 09:46:18;;;;;;;3.78;2.97;;;;;;;21.44;54.44;100025.09;4926507;28;20051;-86
2023/06/07 09:48:49;;;;;;;4.50;2.92;;;;;;;21.49;54.11;100029.91;4910086;28;20499;-87
2023/06/07 09:51:20;;;;;;;3.33;3.03;;;;;;;21.52;54.34;100028.69;4919244;28;20124;-88
2023/06/07 09:53:59;;;;;;;3.30;3.10;;;;;;;21.40;54.70;100037.38;4927593;28;20054;-87
2023/06/07 09:56:27;;;;;;;3.53;3.20;;;;;;;21.37;54.12;100021.53;4930390;28;20368;-87
2023/06/07 09:59:07;;;;;;;3.33;3.03;;;;;;;21.23;53.71;100023.34;4960626;28;20046;-86
2023/06/07 10:01:41;;;;;;;3.33;3.08;;;;;;;21.41;54.49;100020.13;4925473;28;20061;-87
2023/06/07 10:04:11;;;;;;;2.90;2.70;;;;;;;21.44;54.73;100018.88;4940170;28;20484;-87
2023/06/07 10:06:45;;;;;;;2.80;2.60;;;;;;;21.51;54.65;100016.22;4944385;28;20051;-87
2023/06/07 10:09:12;;;;;;;2.50;2.28;;;;;;;21.64;54.37;100019.78;4943526;28;20055;-87
2023/06/07 10:11:42;;;;;;;2.80;2.40;;;;;;;21.66;52.55;100009.59;4916733;28;20048;-87
2023/06/07 10:14:16;;;;;;;2.35;2.15;;;;;;;21.68;52.90;99996.72;4893203;28;20059;-88
2023/06/07 10:16:47;;;;;;;3.38;2.33;;;;;;;21.71;52.49;100009.00;4921795;28;20072;-88
2023/06/07 10:19:31;;;;;;;2.30;2.20;;;;;;;21.59;52.70;99999.81;4926171;28;20106;-86
2023/06/07 10:21:59;;;;;;;2.50;2.30;;;;;;;21.67;52.96;100013.13;4896711;28;20047;-87
2023/06/07 10:24:38;;;;;;;2.20;2.00;;;;;;;21.59;52.37;100008.75;4927132;28;20073;-87
2023/06/07 10:27:12;;;;;;;3.40;2.20;;;;;;;21.56;52.75;100003.75;4935322;28;20133;-86
2023/06/07 10:29:41;;;;;;;2.72;2.38;;;;;;;21.56;52.14;100000.22;4943140;28;20051;-88
2023/06/07 10:32:13;;;;;;;2.78;2.28;;;;;;;21.55;52.45;100004.81;4926953;28;20529;-87
2023/06/07 10:34:40;;;;;;;2.33;2.17;;;;;;;21.60;52.56;100001.47;4938042;28;20126;-88
2023/06/07 10:37:07;;;;;;;2.10;1.83;;;;;;;21.60;52.54;99996.06;4935063;28;20051;-87
2023/06/07 10:39:38;;;;;;;2.10;2.00;;;;;;;21.65;51.99;99999.84;4927719;28;20051;-87
2023/06/07 10:42:06;;;;;;;2.03;1.83;;;;;;;21.71;51.41;99998.19;4927801;28;20047;-87
2023/06/07 10:44:35;;;;;;;2.05;1.95;;;;;;;21.74;51.57;99997.78;4946655;28;20050;-86
2023/06/07 10:47:21;;;;;;;1.90;1.80;;;;;;;21.74;51.57;99992.38;4908858;28;20055;-86
2023/06/07 10:49:49;;;;;;;2.10;1.88;;;;;;;21.92;51.62;99996.34;4946712;28;20131;-87
2023/06/07 10:52:16;;;;;;;1.80;1.70;;;;;;;21.94;51.70;99992.41;4916277;28;20422;-87
2023/06/07 10:54:44;;;;;;;2.40;2.25;;;;;;;21.97;51.72;99999.28;4912590;28;20133;-87
2023/06/07 10:57:11;;;;;;;2.33;2.13;;;;;;;21.99;51.87;99992.63;4944851;28;20536;-87
2023/06/07 10:59:39;;;;;;;1.80;1.70;;;;;;;22.00;51.81;99990.75;4928168;28;20043;-87
2023/06/07 11:02:22;;;;;;;4.28;1.90;;;;;;;21.97;51.40;99999.28;4968934;28;20053;-86
2023/06/07 11:04:51;;;;;;;2.60;1.80;;;;;;;22.00;51.19;99993.44;4933850;28;20110;-87
2023/06/07 11:07:22;;;;;;;1.50;1.40;;;;;;;22.05;51.05;99986.38;4944123;28;20047;-85
2023/06/07 11:09:50;;;;;;;1.73;1.63;;;;;;;22.11;51.03;99992.84;4946413;28;20466;-87
2023/06/07 11:12:35;;;;;;;1.73;1.63;;;;;;;22.08;51.10;99990.53;4929946;28;20431;-87
2023/06/07 11:15:20;;;;;;;1.88;1.77;;;;;;;22.08;50.37;99994.09;4947950;28;20051;-87
2023/06/07 11:17:55;;;;;;;1.75;1.65;;;;;;;22.14;50.61;99989.72;4926726;28;20058;-87
2023/06/07 11:23:23;;;;;;;1.80;1.70;;;;;;;22.00;49.66;99980.75;4952405;28;20059;-87
2023/06/07 11:25:54;;;;;;;1.70;1.60;;;;;;;22.08;50.00;99977.00;4935748;28;20118;-87
2023/06/07 11:28:22;;;;;;;1.80;1.70;;;;;;;22.08;49.99;99971.59;4927100;28;20047;-87
2023/06/07 11:30:51;;;;;;;2.00;1.80;;;;;;;22.02;50.59;99975.16;4921116;28;20519;-87
2023/06/07 11:33:21;;;;;;;1.80;1.70;;;;;;;22.04;50.69;99981.19;4973043;28;20540;-87
2023/06/07 11:35:49;;;;;;;1.60;1.50;;;;;;;22.04;50.81;99981.19;4950298;28;20784;-86
2023/06/07 11:38:16;;;;;;;1.90;1.80;;;;;;;22.09;51.08;99984.09;4960222;28;20117;-87